sensor_id;sensor_type;location;lat;lon;timestamp;P1;durP1;ratioP1;P2;durP2;ratioP2
14681;SDS011;7429;52.498;13.480;2022-11-02T00:02:17;18.87;;;15.27;;
14681;SDS011;7429;52.498;13.480;2022-11-02T00:05:20;18.40;;;14.83;;
14681;SDS011;7429;52.498;13.480;2022-11-02T00:08:25;17.87;;;14.07;;
14681;SDS011;7429;52.498;13.480;2022-11-02T00:11:29;15.37;;;13.83;;
14681;SDS011;7429;52.498;13.480;2022-11-02T00:14:32;19.63;;;14.37;;
14681;SDS011;7429;52.498;13.480;2022-11-02T00:17:36;19.20;;;13.93;;
14681;SDS011;7429;52.498;13.480;2022-11-02T00:20:41;18.93;;;15.57;;
14681;SDS011;7429;52.498;13.480;2022-11-02T00:23:45;16.90;;;14.43;;
14681;SDS011;7429;52.498;13.480;2022-11-02T00:26:50;16.63;;;14.80;;
14681;SDS011;7429;52.498;13.480;2022-11-02T00:29:55;18.67;;;13.80;;
14681;SDS011;7429;52.498;13.480;2022-11-02T00:32:58;17.63;;;14.17;;
14681;SDS011;7429;52.498;13.480;2022-11-02T00:36:02;17.43;;;13.77;;
14681;SDS011;7429;52.498;13.480;2022-11-02T00:39:05;24.10;;;14.10;;
14681;SDS011;7429;52.498;13.480;2022-11-02T00:42:09;19.40;;;14.30;;
14681;SDS011;7429;52.498;13.480;2022-11-02T00:45:12;19.17;;;13.43;;
14681;SDS011;7429;52.498;13.480;2022-11-02T00:48:15;15.90;;;14.20;;
14681;SDS011;7429;52.498;13.480;2022-11-02T00:51:18;21.47;;;13.27;;
14681;SDS011;7429;52.498;13.480;2022-11-02T00:54:22;19.97;;;12.93;;
14681;SDS011;7429;52.498;13.480;2022-11-02T00:57:30;17.93;;;13.13;;
14681;SDS011;7429;52.498;13.480;2022-11-02T01:00:33;20.40;;;13.13;;
14681;SDS011;7429;52.498;13.480;2022-11-02T01:03:37;15.53;;;12.67;;
14681;SDS011;7429;52.498;13.480;2022-11-02T01:06:41;20.13;;;14.20;;
14681;SDS011;7429;52.498;13.480;2022-11-02T01:09:45;16.87;;;13.33;;
14681;SDS011;7429;52.498;13.480;2022-11-02T01:12:49;15.97;;;12.03;;
14681;SDS011;7429;52.498;13.480;2022-11-02T01:15:52;15.93;;;12.67;;
14681;SDS011;7429;52.498;13.480;2022-11-02T01:18:56;17.77;;;14.33;;
14681;SDS011;7429;52.498;13.480;2022-11-02T01:22:00;19.10;;;12.87;;
14681;SDS011;7429;52.498;13.480;2022-11-02T01:25:03;17.63;;;13.47;;
14681;SDS011;7429;52.498;13.480;2022-11-02T01:28:09;14.83;;;12.73;;
14681;SDS011;7429;52.498;13.480;2022-11-02T01:31:13;15.50;;;11.93;;
14681;SDS011;7429;52.498;13.480;2022-11-02T01:34:16;16.47;;;12.73;;
14681;SDS011;7429;52.498;13.480;2022-11-02T01:37:21;16.23;;;12.97;;
14681;SDS011;7429;52.498;13.480;2022-11-02T01:40:25;19.77;;;12.87;;
14681;SDS011;7429;52.498;13.480;2022-11-02T01:43:30;17.13;;;12.63;;
14681;SDS011;7429;52.498;13.480;2022-11-02T01:46:36;14.43;;;11.57;;
14681;SDS011;7429;52.498;13.480;2022-11-02T01:49:43;14.10;;;11.90;;
14681;SDS011;7429;52.498;13.480;2022-11-02T01:52:49;15.13;;;11.73;;
14681;SDS011;7429;52.498;13.480;2022-11-02T01:55:53;14.60;;;11.63;;
14681;SDS011;7429;52.498;13.480;2022-11-02T01:58:58;15.70;;;11.93;;
14681;SDS011;7429;52.498;13.480;2022-11-02T02:02:07;12.77;;;11.33;;
14681;SDS011;7429;52.498;13.480;2022-11-02T02:05:18;16.80;;;13.60;;
14681;SDS011;7429;52.498;13.480;2022-11-02T02:08:24;14.07;;;10.30;;
14681;SDS011;7429;52.498;13.480;2022-11-02T02:11:30;16.17;;;11.53;;
14681;SDS011;7429;52.498;13.480;2022-11-02T02:14:36;16.40;;;11.87;;
14681;SDS011;7429;52.498;13.480;2022-11-02T02:17:41;16.83;;;12.87;;
14681;SDS011;7429;52.498;13.480;2022-11-02T02:20:53;17.77;;;11.37;;
14681;SDS011;7429;52.498;13.480;2022-11-02T02:24:17;14.30;;;11.60;;
14681;SDS011;7429;52.498;13.480;2022-11-02T02:27:53;17.13;;;10.43;;
14681;SDS011;7429;52.498;13.480;2022-11-02T02:31:11;14.53;;;11.43;;
14681;SDS011;7429;52.498;13.480;2022-11-02T02:34:19;12.93;;;10.47;;
14681;SDS011;7429;52.498;13.480;2022-11-02T02:37:29;14.73;;;9.70;;
14681;SDS011;7429;52.498;13.480;2022-11-02T02:40:38;13.83;;;10.63;;
14681;SDS011;7429;52.498;13.480;2022-11-02T02:43:50;12.30;;;10.70;;
14681;SDS011;7429;52.498;13.480;2022-11-02T02:46:56;12.60;;;9.60;;
14681;SDS011;7429;52.498;13.480;2022-11-02T02:50:06;12.97;;;11.57;;
14681;SDS011;7429;52.498;13.480;2022-11-02T02:53:18;14.97;;;10.77;;
14681;SDS011;7429;52.498;13.480;2022-11-02T02:56:25;15.10;;;9.77;;
14681;SDS011;7429;52.498;13.480;2022-11-02T02:59:35;10.43;;;9.37;;
14681;SDS011;7429;52.498;13.480;2022-11-02T03:02:43;10.60;;;9.53;;
14681;SDS011;7429;52.498;13.480;2022-11-02T03:06:03;11.53;;;10.00;;
14681;SDS011;7429;52.498;13.480;2022-11-02T03:09:23;14.83;;;9.37;;
14681;SDS011;7429;52.498;13.480;2022-11-02T03:12:38;13.70;;;10.37;;
14681;SDS011;7429;52.498;13.480;2022-11-02T03:15:55;13.03;;;9.50;;
14681;SDS011;7429;52.498;13.480;2022-11-02T03:19:06;12.27;;;10.83;;
14681;SDS011;7429;52.498;13.480;2022-11-02T03:22:23;12.67;;;8.63;;
14681;SDS011;7429;52.498;13.480;2022-11-02T03:25:35;10.93;;;8.33;;
14681;SDS011;7429;52.498;13.480;2022-11-02T03:28:52;15.40;;;8.33;;
14681;SDS011;7429;52.498;13.480;2022-11-02T03:32:04;12.70;;;8.87;;
14681;SDS011;7429;52.498;13.480;2022-11-02T03:35:12;15.20;;;9.00;;
14681;SDS011;7429;52.498;13.480;2022-11-02T03:38:23;10.73;;;8.40;;
14681;SDS011;7429;52.498;13.480;2022-11-02T03:41:34;14.10;;;8.00;;
14681;SDS011;7429;52.498;13.480;2022-11-02T03:44:39;12.20;;;7.57;;
14681;SDS011;7429;52.498;13.480;2022-11-02T03:47:46;11.97;;;8.30;;
14681;SDS011;7429;52.498;13.480;2022-11-02T03:50:55;12.60;;;6.90;;
14681;SDS011;7429;52.498;13.480;2022-11-02T03:54:04;11.03;;;7.17;;
14681;SDS011;7429;52.498;13.480;2022-11-02T03:57:12;13.97;;;7.60;;
14681;SDS011;7429;52.498;13.480;2022-11-02T04:00:21;9.90;;;7.37;;
14681;SDS011;7429;52.498;13.480;2022-11-02T04:03:35;13.63;;;7.50;;
14681;SDS011;7429;52.498;13.480;2022-11-02T04:06:43;9.20;;;7.40;;
14681;SDS011;7429;52.498;13.480;2022-11-02T04:09:48;11.60;;;7.57;;
14681;SDS011;7429;52.498;13.480;2022-11-02T04:12:51;12.50;;;6.97;;
14681;SDS011;7429;52.498;13.480;2022-11-02T04:16:12;8.33;;;6.73;;
14681;SDS011;7429;52.498;13.480;2022-11-02T04:19:17;10.90;;;7.37;;
14681;SDS011;7429;52.498;13.480;2022-11-02T04:22:34;7.97;;;7.07;;
14681;SDS011;7429;52.498;13.480;2022-11-02T04:25:55;8.17;;;6.00;;
14681;SDS011;7429;52.498;13.480;2022-11-02T04:29:18;11.73;;;6.27;;
14681;SDS011;7429;52.498;13.480;2022-11-02T04:32:21;11.20;;;7.13;;
14681;SDS011;7429;52.498;13.480;2022-11-02T04:35:44;11.53;;;7.20;;
14681;SDS011;7429;52.498;13.480;2022-11-02T04:38:47;14.43;;;7.27;;
14681;SDS011;7429;52.498;13.480;2022-11-02T04:41:53;15.50;;;6.67;;
14681;SDS011;7429;52.498;13.480;2022-11-02T04:45:08;11.90;;;7.73;;
14681;SDS011;7429;52.498;13.480;2022-11-02T04:48:12;9.37;;;7.03;;
14681;SDS011;7429;52.498;13.480;2022-11-02T04:51:17;10.73;;;6.93;;
14681;SDS011;7429;52.498;13.480;2022-11-02T04:54:22;8.53;;;6.70;;
14681;SDS011;7429;52.498;13.480;2022-11-02T04:57:30;11.73;;;6.03;;
14681;SDS011;7429;52.498;13.480;2022-11-02T05:00:33;12.57;;;6.20;;
14681;SDS011;7429;52.498;13.480;2022-11-02T05:03:36;12.27;;;6.50;;
14681;SDS011;7429;52.498;13.480;2022-11-02T05:06:42;9.03;;;7.07;;
14681;SDS011;7429;52.498;13.480;2022-11-02T05:09:46;9.93;;;6.50;;
14681;SDS011;7429;52.498;13.480;2022-11-02T05:12:54;10.37;;;5.77;;
14681;SDS011;7429;52.498;13.480;2022-11-02T05:16:01;11.40;;;7.37;;
14681;SDS011;7429;52.498;13.480;2022-11-02T05:19:05;8.97;;;5.80;;
14681;SDS011;7429;52.498;13.480;2022-11-02T05:22:14;7.53;;;6.40;;
14681;SDS011;7429;52.498;13.480;2022-11-02T05:25:17;10.23;;;6.13;;
14681;SDS011;7429;52.498;13.480;2022-11-02T05:28:21;12.13;;;6.30;;
14681;SDS011;7429;52.498;13.480;2022-11-02T05:31:24;12.00;;;6.30;;
14681;SDS011;7429;52.498;13.480;2022-11-02T05:34:27;12.10;;;5.77;;
14681;SDS011;7429;52.498;13.480;2022-11-02T05:37:32;9.40;;;5.67;;
14681;SDS011;7429;52.498;13.480;2022-11-02T05:40:36;12.20;;;6.37;;
14681;SDS011;7429;52.498;13.480;2022-11-02T05:43:43;9.33;;;5.83;;
14681;SDS011;7429;52.498;13.480;2022-11-02T05:46:48;14.17;;;7.00;;
14681;SDS011;7429;52.498;13.480;2022-11-02T05:49:51;11.40;;;7.07;;
14681;SDS011;7429;52.498;13.480;2022-11-02T05:52:55;13.50;;;5.17;;
14681;SDS011;7429;52.498;13.480;2022-11-02T05:55:58;9.63;;;5.10;;
14681;SDS011;7429;52.498;13.480;2022-11-02T05:59:04;8.20;;;6.50;;
14681;SDS011;7429;52.498;13.480;2022-11-02T06:02:07;19.07;;;7.07;;
14681;SDS011;7429;52.498;13.480;2022-11-02T06:05:11;9.77;;;5.00;;
14681;SDS011;7429;52.498;13.480;2022-11-02T06:08:15;14.23;;;7.23;;
14681;SDS011;7429;52.498;13.480;2022-11-02T06:11:18;13.30;;;5.67;;
14681;SDS011;7429;52.498;13.480;2022-11-02T06:14:21;11.27;;;6.17;;
14681;SDS011;7429;52.498;13.480;2022-11-02T06:17:24;17.43;;;6.90;;
14681;SDS011;7429;52.498;13.480;2022-11-02T06:20:27;17.97;;;6.47;;
14681;SDS011;7429;52.498;13.480;2022-11-02T06:23:32;11.03;;;6.60;;
14681;SDS011;7429;52.498;13.480;2022-11-02T06:26:35;15.43;;;5.83;;
14681;SDS011;7429;52.498;13.480;2022-11-02T06:29:38;15.70;;;7.13;;
14681;SDS011;7429;52.498;13.480;2022-11-02T06:32:44;10.47;;;6.33;;
14681;SDS011;7429;52.498;13.480;2022-11-02T06:35:49;11.80;;;5.90;;
14681;SDS011;7429;52.498;13.480;2022-11-02T06:38:55;10.17;;;6.57;;
14681;SDS011;7429;52.498;13.480;2022-11-02T06:41:58;10.07;;;5.37;;
14681;SDS011;7429;52.498;13.480;2022-11-02T06:45:01;10.83;;;5.83;;
14681;SDS011;7429;52.498;13.480;2022-11-02T06:48:04;15.33;;;5.17;;
14681;SDS011;7429;52.498;13.480;2022-11-02T06:51:07;7.77;;;5.10;;
14681;SDS011;7429;52.498;13.480;2022-11-02T06:54:11;9.77;;;5.73;;
14681;SDS011;7429;52.498;13.480;2022-11-02T06:57:14;11.87;;;6.90;;
14681;SDS011;7429;52.498;13.480;2022-11-02T07:00:18;13.87;;;7.07;;
14681;SDS011;7429;52.498;13.480;2022-11-02T07:03:24;11.23;;;5.77;;
14681;SDS011;7429;52.498;13.480;2022-11-02T07:06:28;15.63;;;6.27;;
14681;SDS011;7429;52.498;13.480;2022-11-02T07:09:32;16.23;;;6.40;;
14681;SDS011;7429;52.498;13.480;2022-11-02T07:12:36;12.27;;;6.13;;
14681;SDS011;7429;52.498;13.480;2022-11-02T07:15:39;19.53;;;6.73;;
14681;SDS011;7429;52.498;13.480;2022-11-02T07:18:42;16.07;;;5.87;;
14681;SDS011;7429;52.498;13.480;2022-11-02T07:21:45;12.63;;;5.63;;
14681;SDS011;7429;52.498;13.480;2022-11-02T07:24:49;12.73;;;5.80;;
14681;SDS011;7429;52.498;13.480;2022-11-02T07:27:52;11.10;;;4.80;;
14681;SDS011;7429;52.498;13.480;2022-11-02T07:30:56;9.57;;;5.07;;
14681;SDS011;7429;52.498;13.480;2022-11-02T07:33:59;16.23;;;5.70;;
14681;SDS011;7429;52.498;13.480;2022-11-02T07:37:02;8.67;;;5.07;;
14681;SDS011;7429;52.498;13.480;2022-11-02T07:40:08;9.23;;;4.97;;
14681;SDS011;7429;52.498;13.480;2022-11-02T07:43:14;12.63;;;5.37;;
14681;SDS011;7429;52.498;13.480;2022-11-02T07:46:26;14.13;;;5.00;;
14681;SDS011;7429;52.498;13.480;2022-11-02T07:49:29;8.50;;;5.00;;
14681;SDS011;7429;52.498;13.480;2022-11-02T07:52:32;7.63;;;4.97;;
14681;SDS011;7429;52.498;13.480;2022-11-02T07:55:36;10.87;;;6.00;;
14681;SDS011;7429;52.498;13.480;2022-11-02T07:58:40;18.47;;;6.03;;
14681;SDS011;7429;52.498;13.480;2022-11-02T08:01:43;13.83;;;4.93;;
14681;SDS011;7429;52.498;13.480;2022-11-02T08:04:46;11.47;;;4.23;;
14681;SDS011;7429;52.498;13.480;2022-11-02T08:07:55;9.23;;;4.23;;
14681;SDS011;7429;52.498;13.480;2022-11-02T08:11:03;10.17;;;4.50;;
14681;SDS011;7429;52.498;13.480;2022-11-02T08:14:09;9.87;;;5.93;;
14681;SDS011;7429;52.498;13.480;2022-11-02T08:17:12;11.23;;;5.13;;
14681;SDS011;7429;52.498;13.480;2022-11-02T08:20:15;12.20;;;5.73;;
14681;SDS011;7429;52.498;13.480;2022-11-02T08:23:18;12.87;;;4.73;;
14681;SDS011;7429;52.498;13.480;2022-11-02T08:26:23;7.40;;;4.53;;
14681;SDS011;7429;52.498;13.480;2022-11-02T08:29:26;9.87;;;4.43;;
14681;SDS011;7429;52.498;13.480;2022-11-02T08:32:29;10.17;;;4.40;;
14681;SDS011;7429;52.498;13.480;2022-11-02T08:35:32;14.20;;;5.33;;
14681;SDS011;7429;52.498;13.480;2022-11-02T08:38:37;10.67;;;4.80;;
14681;SDS011;7429;52.498;13.480;2022-11-02T08:41:42;10.60;;;4.97;;
14681;SDS011;7429;52.498;13.480;2022-11-02T08:44:45;12.30;;;5.03;;
14681;SDS011;7429;52.498;13.480;2022-11-02T08:47:48;8.57;;;5.93;;
14681;SDS011;7429;52.498;13.480;2022-11-02T08:50:51;12.13;;;4.37;;
14681;SDS011;7429;52.498;13.480;2022-11-02T08:53:54;10.43;;;4.63;;
14681;SDS011;7429;52.498;13.480;2022-11-02T08:56:58;13.20;;;4.90;;
14681;SDS011;7429;52.498;13.480;2022-11-02T09:00:02;9.77;;;4.83;;
14681;SDS011;7429;52.498;13.480;2022-11-02T09:03:07;9.80;;;4.43;;
14681;SDS011;7429;52.498;13.480;2022-11-02T09:06:12;8.60;;;5.07;;
14681;SDS011;7429;52.498;13.480;2022-11-02T09:09:15;12.93;;;5.23;;
14681;SDS011;7429;52.498;13.480;2022-11-02T09:12:19;10.73;;;4.73;;
14681;SDS011;7429;52.498;13.480;2022-11-02T09:15:23;11.10;;;4.53;;
14681;SDS011;7429;52.498;13.480;2022-11-02T09:18:26;11.23;;;5.97;;
14681;SDS011;7429;52.498;13.480;2022-11-02T09:21:29;13.37;;;4.83;;
14681;SDS011;7429;52.498;13.480;2022-11-02T09:24:32;9.73;;;4.97;;
14681;SDS011;7429;52.498;13.480;2022-11-02T09:27:36;9.23;;;3.77;;
14681;SDS011;7429;52.498;13.480;2022-11-02T09:30:40;13.10;;;4.27;;
14681;SDS011;7429;52.498;13.480;2022-11-02T09:33:43;12.13;;;4.90;;
14681;SDS011;7429;52.498;13.480;2022-11-02T09:36:46;15.50;;;4.57;;
14681;SDS011;7429;52.498;13.480;2022-11-02T09:39:49;10.93;;;4.37;;
14681;SDS011;7429;52.498;13.480;2022-11-02T09:43:01;9.50;;;3.87;;
14681;SDS011;7429;52.498;13.480;2022-11-02T09:46:14;10.80;;;3.67;;
14681;SDS011;7429;52.498;13.480;2022-11-02T09:49:22;19.13;;;4.33;;
14681;SDS011;7429;52.498;13.480;2022-11-02T09:52:27;7.57;;;4.00;;
14681;SDS011;7429;52.498;13.480;2022-11-02T09:55:39;13.70;;;5.37;;
14681;SDS011;7429;52.498;13.480;2022-11-02T09:58:53;8.50;;;3.77;;
14681;SDS011;7429;52.498;13.480;2022-11-02T10:02:03;6.87;;;3.70;;
14681;SDS011;7429;52.498;13.480;2022-11-02T10:05:23;11.33;;;3.67;;
14681;SDS011;7429;52.498;13.480;2022-11-02T10:08:36;10.83;;;4.73;;
14681;SDS011;7429;52.498;13.480;2022-11-02T10:11:51;6.63;;;3.53;;
14681;SDS011;7429;52.498;13.480;2022-11-02T10:15:04;10.03;;;3.23;;
14681;SDS011;7429;52.498;13.480;2022-11-02T10:18:15;13.27;;;4.85;;
14681;SDS011;7429;52.498;13.480;2022-11-02T10:21:22;15.02;;;5.32;;
14681;SDS011;7429;52.498;13.480;2022-11-02T10:24:29;12.02;;;3.45;;
14681;SDS011;7429;52.498;13.480;2022-11-02T10:27:37;9.00;;;3.67;;
14681;SDS011;7429;52.498;13.480;2022-11-02T10:30:43;11.53;;;3.67;;
14681;SDS011;7429;52.498;13.480;2022-11-02T10:33:46;9.27;;;3.00;;
14681;SDS011;7429;52.498;13.480;2022-11-02T10:37:00;11.88;;;4.60;;
14681;SDS011;7429;52.498;13.480;2022-11-02T10:40:20;8.98;;;3.88;;
14681;SDS011;7429;52.498;13.480;2022-11-02T10:43:53;12.13;;;5.53;;
14681;SDS011;7429;52.498;13.480;2022-11-02T10:47:15;6.28;;;5.47;;
14681;SDS011;7429;52.498;13.480;2022-11-02T10:50:27;8.90;;;3.67;;
14681;SDS011;7429;52.498;13.480;2022-11-02T10:53:45;8.50;;;3.70;;
14681;SDS011;7429;52.498;13.480;2022-11-02T10:56:51;11.63;;;3.58;;
14681;SDS011;7429;52.498;13.480;2022-11-02T11:00:20;11.25;;;3.35;;
14681;SDS011;7429;52.498;13.480;2022-11-02T11:03:31;6.78;;;3.13;;
14681;SDS011;7429;52.498;13.480;2022-11-02T11:06:35;14.20;;;4.22;;
14681;SDS011;7429;52.498;13.480;2022-11-02T11:09:45;12.52;;;3.65;;
14681;SDS011;7429;52.498;13.480;2022-11-02T11:12:50;10.05;;;3.90;;
14681;SDS011;7429;52.498;13.480;2022-11-02T11:15:53;10.73;;;3.83;;
14681;SDS011;7429;52.498;13.480;2022-11-02T11:18:57;9.07;;;3.20;;
14681;SDS011;7429;52.498;13.480;2022-11-02T11:22:22;7.68;;;3.40;;
14681;SDS011;7429;52.498;13.480;2022-11-02T11:25:28;10.55;;;3.72;;
14681;SDS011;7429;52.498;13.480;2022-11-02T11:28:33;11.93;;;3.70;;
14681;SDS011;7429;52.498;13.480;2022-11-02T11:31:41;7.07;;;3.38;;
14681;SDS011;7429;52.498;13.480;2022-11-02T11:34:48;8.63;;;3.22;;
14681;SDS011;7429;52.498;13.480;2022-11-02T11:37:58;13.13;;;3.42;;
14681;SDS011;7429;52.498;13.480;2022-11-02T11:41:05;10.65;;;4.20;;
14681;SDS011;7429;52.498;13.480;2022-11-02T11:44:13;13.07;;;4.10;;
14681;SDS011;7429;52.498;13.480;2022-11-02T11:47:22;6.97;;;3.67;;
14681;SDS011;7429;52.498;13.480;2022-11-02T11:50:29;5.68;;;3.33;;
14681;SDS011;7429;52.498;13.480;2022-11-02T11:53:32;10.20;;;3.80;;
14681;SDS011;7429;52.498;13.480;2022-11-02T11:56:36;9.90;;;3.92;;
14681;SDS011;7429;52.498;13.480;2022-11-02T11:59:46;11.10;;;4.07;;
14681;SDS011;7429;52.498;13.480;2022-11-02T12:03:00;7.43;;;3.40;;
14681;SDS011;7429;52.498;13.480;2022-11-02T12:06:12;8.73;;;3.40;;
14681;SDS011;7429;52.498;13.480;2022-11-02T12:09:24;6.75;;;3.58;;
14681;SDS011;7429;52.498;13.480;2022-11-02T12:12:39;11.02;;;3.15;;
14681;SDS011;7429;52.498;13.480;2022-11-02T12:16:08;7.18;;;3.10;;
14681;SDS011;7429;52.498;13.480;2022-11-02T12:19:21;9.20;;;3.45;;
14681;SDS011;7429;52.498;13.480;2022-11-02T12:22:39;6.18;;;2.72;;
14681;SDS011;7429;52.498;13.480;2022-11-02T12:25:51;8.20;;;3.00;;
14681;SDS011;7429;52.498;13.480;2022-11-02T12:29:10;6.88;;;3.15;;
14681;SDS011;7429;52.498;13.480;2022-11-02T12:32:39;8.90;;;3.17;;
14681;SDS011;7429;52.498;13.480;2022-11-02T12:36:04;5.40;;;3.58;;
14681;SDS011;7429;52.498;13.480;2022-11-02T12:39:18;5.95;;;2.85;;
14681;SDS011;7429;52.498;13.480;2022-11-02T12:42:30;6.55;;;3.08;;
14681;SDS011;7429;52.498;13.480;2022-11-02T12:45:43;7.32;;;3.42;;
14681;SDS011;7429;52.498;13.480;2022-11-02T12:48:56;7.40;;;2.80;;
14681;SDS011;7429;52.498;13.480;2022-11-02T12:52:21;7.10;;;2.80;;
14681;SDS011;7429;52.498;13.480;2022-11-02T12:55:39;6.80;;;2.58;;
14681;SDS011;7429;52.498;13.480;2022-11-02T12:58:47;9.07;;;3.10;;
14681;SDS011;7429;52.498;13.480;2022-11-02T13:01:50;5.30;;;2.65;;
14681;SDS011;7429;52.498;13.480;2022-11-02T13:04:59;3.45;;;2.67;;
14681;SDS011;7429;52.498;13.480;2022-11-02T13:08:10;10.50;;;2.80;;
14681;SDS011;7429;52.498;13.480;2022-11-02T13:11:18;6.65;;;2.85;;
14681;SDS011;7429;52.498;13.480;2022-11-02T13:14:28;5.53;;;2.70;;
14681;SDS011;7429;52.498;13.480;2022-11-02T13:17:38;6.07;;;2.85;;
14681;SDS011;7429;52.498;13.480;2022-11-02T13:20:47;5.80;;;2.65;;
14681;SDS011;7429;52.498;13.480;2022-11-02T13:23:54;5.57;;;2.40;;
14681;SDS011;7429;52.498;13.480;2022-11-02T13:27:02;6.22;;;2.60;;
14681;SDS011;7429;52.498;13.480;2022-11-02T13:30:27;8.73;;;2.58;;
14681;SDS011;7429;52.498;13.480;2022-11-02T13:33:33;5.05;;;2.30;;
14681;SDS011;7429;52.498;13.480;2022-11-02T13:36:45;3.20;;;2.28;;
14681;SDS011;7429;52.498;13.480;2022-11-02T13:39:49;12.45;;;3.05;;
14681;SDS011;7429;52.498;13.480;2022-11-02T13:43:04;7.93;;;2.80;;
14681;SDS011;7429;52.498;13.480;2022-11-02T13:46:28;12.07;;;2.45;;
14681;SDS011;7429;52.498;13.480;2022-11-02T13:49:48;4.57;;;2.72;;
14681;SDS011;7429;52.498;13.480;2022-11-02T13:52:54;6.80;;;2.60;;
14681;SDS011;7429;52.498;13.480;2022-11-02T13:56:00;6.20;;;3.05;;
14681;SDS011;7429;52.498;13.480;2022-11-02T13:59:17;9.23;;;3.25;;
14681;SDS011;7429;52.498;13.480;2022-11-02T14:02:25;10.25;;;2.75;;
14681;SDS011;7429;52.498;13.480;2022-11-02T14:05:33;6.63;;;2.70;;
14681;SDS011;7429;52.498;13.480;2022-11-02T14:08:46;4.82;;;2.70;;
14681;SDS011;7429;52.498;13.480;2022-11-02T14:11:52;5.07;;;2.58;;
14681;SDS011;7429;52.498;13.480;2022-11-02T14:19:11;5.85;;;3.17;;
14681;SDS011;7429;52.498;13.480;2022-11-02T14:22:22;6.90;;;2.95;;
14681;SDS011;7429;52.498;13.480;2022-11-02T14:25:25;6.97;;;2.88;;
14681;SDS011;7429;52.498;13.480;2022-11-02T14:28:49;7.63;;;3.15;;
14681;SDS011;7429;52.498;13.480;2022-11-02T14:31:55;7.40;;;2.97;;
14681;SDS011;7429;52.498;13.480;2022-11-02T14:35:09;6.72;;;3.17;;
14681;SDS011;7429;52.498;13.480;2022-11-02T14:38:39;14.25;;;3.45;;
14681;SDS011;7429;52.498;13.480;2022-11-02T14:42:13;11.45;;;3.10;;
14681;SDS011;7429;52.498;13.480;2022-11-02T14:45:34;6.35;;;3.13;;
14681;SDS011;7429;52.498;13.480;2022-11-02T14:48:56;9.52;;;3.00;;
14681;SDS011;7429;52.498;13.480;2022-11-02T14:52:02;5.63;;;3.13;;
14681;SDS011;7429;52.498;13.480;2022-11-02T14:55:20;6.43;;;3.05;;
14681;SDS011;7429;52.498;13.480;2022-11-02T14:58:28;9.40;;;3.35;;
14681;SDS011;7429;52.498;13.480;2022-11-02T15:01:41;12.35;;;3.13;;
14681;SDS011;7429;52.498;13.480;2022-11-02T15:04:55;6.88;;;2.92;;
14681;SDS011;7429;52.498;13.480;2022-11-02T15:08:01;5.85;;;2.88;;
14681;SDS011;7429;52.498;13.480;2022-11-02T15:14:50;4.70;;;2.80;;
14681;SDS011;7429;52.498;13.480;2022-11-02T15:18:15;6.63;;;3.15;;
14681;SDS011;7429;52.498;13.480;2022-11-02T15:21:28;7.05;;;3.35;;
14681;SDS011;7429;52.498;13.480;2022-11-02T15:24:33;9.00;;;3.55;;
14681;SDS011;7429;52.498;13.480;2022-11-02T15:27:38;6.53;;;3.00;;
14681;SDS011;7429;52.498;13.480;2022-11-02T15:30:44;11.20;;;3.70;;
14681;SDS011;7429;52.498;13.480;2022-11-02T15:33:53;7.57;;;3.47;;
14681;SDS011;7429;52.498;13.480;2022-11-02T15:37:00;9.37;;;2.83;;
14681;SDS011;7429;52.498;13.480;2022-11-02T15:40:04;7.00;;;2.90;;
14681;SDS011;7429;52.498;13.480;2022-11-02T15:43:35;6.23;;;2.97;;
14681;SDS011;7429;52.498;13.480;2022-11-02T15:46:58;6.87;;;3.23;;
14681;SDS011;7429;52.498;13.480;2022-11-02T15:50:15;8.17;;;3.70;;
14681;SDS011;7429;52.498;13.480;2022-11-02T15:57:16;5.97;;;3.33;;
14681;SDS011;7429;52.498;13.480;2022-11-02T16:00:27;5.07;;;3.23;;
14681;SDS011;7429;52.498;13.480;2022-11-02T16:03:31;12.80;;;3.80;;
14681;SDS011;7429;52.498;13.480;2022-11-02T16:06:35;7.50;;;3.53;;
14681;SDS011;7429;52.498;13.480;2022-11-02T16:09:43;9.70;;;3.43;;
14681;SDS011;7429;52.498;13.480;2022-11-02T16:12:54;7.73;;;3.40;;
14681;SDS011;7429;52.498;13.480;2022-11-02T16:16:03;9.03;;;3.27;;
14681;SDS011;7429;52.498;13.480;2022-11-02T16:19:15;7.90;;;3.43;;
14681;SDS011;7429;52.498;13.480;2022-11-02T16:22:21;17.60;;;3.50;;
14681;SDS011;7429;52.498;13.480;2022-11-02T16:25:31;9.37;;;3.00;;
14681;SDS011;7429;52.498;13.480;2022-11-02T16:28:40;7.90;;;3.43;;
14681;SDS011;7429;52.498;13.480;2022-11-02T16:31:43;10.93;;;3.73;;
14681;SDS011;7429;52.498;13.480;2022-11-02T16:34:47;8.97;;;3.43;;
14681;SDS011;7429;52.498;13.480;2022-11-02T16:37:50;12.23;;;3.50;;
14681;SDS011;7429;52.498;13.480;2022-11-02T16:40:56;8.53;;;3.27;;
14681;SDS011;7429;52.498;13.480;2022-11-02T16:44:01;7.40;;;3.60;;
14681;SDS011;7429;52.498;13.480;2022-11-02T16:47:17;6.50;;;3.13;;
14681;SDS011;7429;52.498;13.480;2022-11-02T16:50:30;7.07;;;3.50;;
14681;SDS011;7429;52.498;13.480;2022-11-02T16:53:33;8.40;;;3.27;;
14681;SDS011;7429;52.498;13.480;2022-11-02T16:56:38;7.57;;;3.40;;
14681;SDS011;7429;52.498;13.480;2022-11-02T16:59:46;5.90;;;2.83;;
14681;SDS011;7429;52.498;13.480;2022-11-02T17:02:52;10.30;;;3.70;;
14681;SDS011;7429;52.498;13.480;2022-11-02T17:05:57;8.83;;;3.93;;
14681;SDS011;7429;52.498;13.480;2022-11-02T17:09:03;6.03;;;3.87;;
14681;SDS011;7429;52.498;13.480;2022-11-02T17:12:08;8.57;;;3.53;;
14681;SDS011;7429;52.498;13.480;2022-11-02T17:15:17;9.53;;;3.70;;
14681;SDS011;7429;52.498;13.480;2022-11-02T17:18:23;9.00;;;3.70;;
14681;SDS011;7429;52.498;13.480;2022-11-02T17:21:29;5.30;;;3.73;;
14681;SDS011;7429;52.498;13.480;2022-11-02T17:24:32;7.13;;;3.53;;
14681;SDS011;7429;52.498;13.480;2022-11-02T17:27:38;9.30;;;4.13;;
14681;SDS011;7429;52.498;13.480;2022-11-02T17:30:44;9.00;;;3.83;;
14681;SDS011;7429;52.498;13.480;2022-11-02T17:33:48;11.10;;;4.20;;
14681;SDS011;7429;52.498;13.480;2022-11-02T17:36:52;8.00;;;4.30;;
14681;SDS011;7429;52.498;13.480;2022-11-02T17:39:55;9.73;;;3.80;;
14681;SDS011;7429;52.498;13.480;2022-11-02T17:43:03;7.03;;;3.90;;
14681;SDS011;7429;52.498;13.480;2022-11-02T17:46:06;7.50;;;3.90;;
14681;SDS011;7429;52.498;13.480;2022-11-02T17:49:10;9.67;;;4.10;;
14681;SDS011;7429;52.498;13.480;2022-11-02T17:52:13;8.87;;;3.73;;
14681;SDS011;7429;52.498;13.480;2022-11-02T17:55:18;8.67;;;3.33;;
14681;SDS011;7429;52.498;13.480;2022-11-02T17:58:25;14.27;;;4.17;;
14681;SDS011;7429;52.498;13.480;2022-11-02T18:01:28;11.50;;;3.43;;
14681;SDS011;7429;52.498;13.480;2022-11-02T18:04:33;9.10;;;3.90;;
14681;SDS011;7429;52.498;13.480;2022-11-02T18:07:36;11.03;;;4.80;;
14681;SDS011;7429;52.498;13.480;2022-11-02T18:10:40;6.47;;;3.83;;
14681;SDS011;7429;52.498;13.480;2022-11-02T18:13:46;10.57;;;4.60;;
14681;SDS011;7429;52.498;13.480;2022-11-02T18:16:49;10.90;;;5.20;;
14681;SDS011;7429;52.498;13.480;2022-11-02T18:19:53;9.90;;;5.50;;
14681;SDS011;7429;52.498;13.480;2022-11-02T18:22:56;9.10;;;4.77;;
14681;SDS011;7429;52.498;13.480;2022-11-02T18:26:01;14.10;;;4.20;;
14681;SDS011;7429;52.498;13.480;2022-11-02T18:29:05;8.27;;;4.30;;
14681;SDS011;7429;52.498;13.480;2022-11-02T18:32:08;8.37;;;4.57;;
14681;SDS011;7429;52.498;13.480;2022-11-02T18:35:12;9.17;;;4.80;;
14681;SDS011;7429;52.498;13.480;2022-11-02T18:38:18;13.60;;;4.57;;
14681;SDS011;7429;52.498;13.480;2022-11-02T18:41:21;12.17;;;4.33;;
14681;SDS011;7429;52.498;13.480;2022-11-02T18:44:32;14.37;;;4.83;;
14681;SDS011;7429;52.498;13.480;2022-11-02T18:47:35;8.17;;;4.83;;
14681;SDS011;7429;52.498;13.480;2022-11-02T18:50:39;11.03;;;4.80;;
14681;SDS011;7429;52.498;13.480;2022-11-02T18:53:42;7.93;;;4.73;;